Terminal Aerodrome Forecast
Issued by NWS

Home | Current Version | Previous Version | Text Only | Print | Product List | Glossary On
Versions: 1 2 3 4 5 6 7 8 9 10 11 12 13 14 15 16 17 18
000
FTUS43 KMQT 240800 AAA
TAFSAW
TAF AMD
KSAW 240803Z 2408/2506 22005KT 1/2SM FG OVC001
     FM241400 20004KT 4SM BR BKN006
     FM241500 20010KT P6SM SCT120
      AMD LTD TO CLD VIS AND WIND TIL 241000=

USA.gov is the U.S. government's official web portal to all federal, state and local government web resources and services.